sensor_id;sensor_type;location;lat;lon;timestamp;P1;durP1;ratioP1;P2;durP2;ratioP2
10446;SDS011;5271;44.422;26.092;2023-02-18T00:00:54;0.90;;;0.90;;
10446;SDS011;5271;44.422;26.092;2023-02-18T00:03:22;0.90;;;0.90;;
10446;SDS011;5271;44.422;26.092;2023-02-18T00:05:49;1.00;;;1.00;;
10446;SDS011;5271;44.422;26.092;2023-02-18T00:08:16;0.90;;;0.90;;
10446;SDS011;5271;44.422;26.092;2023-02-18T00:10:43;0.93;;;0.93;;
10446;SDS011;5271;44.422;26.092;2023-02-18T00:13:10;0.90;;;0.90;;
10446;SDS011;5271;44.422;26.092;2023-02-18T00:15:37;0.90;;;0.90;;
10446;SDS011;5271;44.422;26.092;2023-02-18T00:18:06;0.90;;;0.90;;
10446;SDS011;5271;44.422;26.092;2023-02-18T00:20:33;0.90;;;0.90;;
10446;SDS011;5271;44.422;26.092;2023-02-18T00:23:00;0.90;;;0.90;;
10446;SDS011;5271;44.422;26.092;2023-02-18T00:25:27;0.90;;;0.90;;
10446;SDS011;5271;44.422;26.092;2023-02-18T00:27:54;0.90;;;0.90;;
10446;SDS011;5271;44.422;26.092;2023-02-18T00:30:21;0.90;;;0.90;;
10446;SDS011;5271;44.422;26.092;2023-02-18T00:32:48;0.90;;;0.90;;
10446;SDS011;5271;44.422;26.092;2023-02-18T00:35:16;1.00;;;1.00;;
10446;SDS011;5271;44.422;26.092;2023-02-18T00:37:43;0.90;;;0.90;;
10446;SDS011;5271;44.422;26.092;2023-02-18T00:40:10;0.90;;;0.90;;
10446;SDS011;5271;44.422;26.092;2023-02-18T00:42:38;0.90;;;0.90;;
10446;SDS011;5271;44.422;26.092;2023-02-18T00:45:05;0.90;;;0.90;;
10446;SDS011;5271;44.422;26.092;2023-02-18T00:47:32;0.90;;;0.90;;
10446;SDS011;5271;44.422;26.092;2023-02-18T00:49:59;0.90;;;0.90;;
10446;SDS011;5271;44.422;26.092;2023-02-18T00:52:27;0.90;;;0.90;;
10446;SDS011;5271;44.422;26.092;2023-02-18T00:54:54;0.90;;;0.90;;
10446;SDS011;5271;44.422;26.092;2023-02-18T00:57:21;0.90;;;0.90;;
10446;SDS011;5271;44.422;26.092;2023-02-18T00:59:48;0.90;;;0.90;;
10446;SDS011;5271;44.422;26.092;2023-02-18T01:02:15;0.80;;;0.80;;
10446;SDS011;5271;44.422;26.092;2023-02-18T01:04:41;0.90;;;0.90;;
10446;SDS011;5271;44.422;26.092;2023-02-18T01:07:08;0.80;;;0.80;;
10446;SDS011;5271;44.422;26.092;2023-02-18T01:09:37;0.90;;;0.90;;
10446;SDS011;5271;44.422;26.092;2023-02-18T01:12:04;1.00;;;1.00;;
10446;SDS011;5271;44.422;26.092;2023-02-18T01:14:31;0.90;;;0.90;;
10446;SDS011;5271;44.422;26.092;2023-02-18T01:16:58;0.90;;;0.90;;
10446;SDS011;5271;44.422;26.092;2023-02-18T01:19:25;0.80;;;0.80;;
10446;SDS011;5271;44.422;26.092;2023-02-18T01:21:52;0.90;;;0.90;;
10446;SDS011;5271;44.422;26.092;2023-02-18T01:24:19;0.90;;;0.90;;
10446;SDS011;5271;44.422;26.092;2023-02-18T01:26:47;0.80;;;0.80;;
10446;SDS011;5271;44.422;26.092;2023-02-18T01:29:14;0.80;;;0.80;;
10446;SDS011;5271;44.422;26.092;2023-02-18T01:31:40;0.80;;;0.80;;
10446;SDS011;5271;44.422;26.092;2023-02-18T01:34:07;0.97;;;0.97;;
10446;SDS011;5271;44.422;26.092;2023-02-18T01:36:34;0.90;;;0.90;;
10446;SDS011;5271;44.422;26.092;2023-02-18T01:39:01;0.90;;;0.90;;
10446;SDS011;5271;44.422;26.092;2023-02-18T01:41:30;0.90;;;0.90;;
10446;SDS011;5271;44.422;26.092;2023-02-18T01:46:53;0.90;;;0.90;;
10446;SDS011;5271;44.422;26.092;2023-02-18T01:49:21;0.90;;;0.90;;
10446;SDS011;5271;44.422;26.092;2023-02-18T01:51:51;0.90;;;0.90;;
10446;SDS011;5271;44.422;26.092;2023-02-18T01:54:23;0.90;;;0.90;;
10446;SDS011;5271;44.422;26.092;2023-02-18T01:56:54;0.80;;;0.80;;
10446;SDS011;5271;44.422;26.092;2023-02-18T01:59:27;0.90;;;0.90;;
10446;SDS011;5271;44.422;26.092;2023-02-18T02:01:56;0.80;;;0.80;;
10446;SDS011;5271;44.422;26.092;2023-02-18T02:04:24;0.70;;;0.70;;
10446;SDS011;5271;44.422;26.092;2023-02-18T02:06:51;0.90;;;0.90;;
10446;SDS011;5271;44.422;26.092;2023-02-18T02:09:18;1.00;;;1.00;;
10446;SDS011;5271;44.422;26.092;2023-02-18T02:12:10;0.90;;;0.90;;
10446;SDS011;5271;44.422;26.092;2023-02-18T02:15:01;0.90;;;0.90;;
10446;SDS011;5271;44.422;26.092;2023-02-18T02:17:39;0.90;;;0.90;;
10446;SDS011;5271;44.422;26.092;2023-02-18T02:20:17;0.90;;;0.90;;
10446;SDS011;5271;44.422;26.092;2023-02-18T02:29:33;0.90;;;0.90;;
10446;SDS011;5271;44.422;26.092;2023-02-18T02:32:29;0.97;;;0.97;;
10446;SDS011;5271;44.422;26.092;2023-02-18T02:35:12;0.90;;;0.90;;
10446;SDS011;5271;44.422;26.092;2023-02-18T02:37:45;0.93;;;0.93;;
10446;SDS011;5271;44.422;26.092;2023-02-18T02:40:20;1.00;;;1.00;;
10446;SDS011;5271;44.422;26.092;2023-02-18T02:42:54;0.93;;;0.93;;
10446;SDS011;5271;44.422;26.092;2023-02-18T02:45:32;0.90;;;0.90;;
10446;SDS011;5271;44.422;26.092;2023-02-18T02:48:08;0.90;;;0.90;;
10446;SDS011;5271;44.422;26.092;2023-02-18T02:50:42;1.00;;;1.00;;
10446;SDS011;5271;44.422;26.092;2023-02-18T02:53:13;0.90;;;0.90;;
10446;SDS011;5271;44.422;26.092;2023-02-18T02:55:44;0.90;;;0.90;;
10446;SDS011;5271;44.422;26.092;2023-02-18T02:58:12;0.90;;;0.90;;
10446;SDS011;5271;44.422;26.092;2023-02-18T03:00:43;0.90;;;0.90;;
10446;SDS011;5271;44.422;26.092;2023-02-18T03:06:18;0.90;;;0.90;;
10446;SDS011;5271;44.422;26.092;2023-02-18T03:08:57;0.90;;;0.90;;
10446;SDS011;5271;44.422;26.092;2023-02-18T03:11:34;0.83;;;0.83;;
10446;SDS011;5271;44.422;26.092;2023-02-18T03:14:09;0.97;;;0.97;;
10446;SDS011;5271;44.422;26.092;2023-02-18T03:16:44;0.90;;;0.90;;
10446;SDS011;5271;44.422;26.092;2023-02-18T03:19:16;0.90;;;0.90;;
10446;SDS011;5271;44.422;26.092;2023-02-18T03:21:48;0.90;;;0.90;;
10446;SDS011;5271;44.422;26.092;2023-02-18T03:24:22;0.90;;;0.90;;
10446;SDS011;5271;44.422;26.092;2023-02-18T03:26:52;0.90;;;0.90;;
10446;SDS011;5271;44.422;26.092;2023-02-18T03:29:23;1.00;;;1.00;;
10446;SDS011;5271;44.422;26.092;2023-02-18T03:31:51;1.00;;;1.00;;
10446;SDS011;5271;44.422;26.092;2023-02-18T03:34:23;1.00;;;1.00;;
10446;SDS011;5271;44.422;26.092;2023-02-18T03:36:55;1.00;;;1.00;;
10446;SDS011;5271;44.422;26.092;2023-02-18T03:39:24;1.00;;;1.00;;
10446;SDS011;5271;44.422;26.092;2023-02-18T03:41:54;0.90;;;0.90;;
10446;SDS011;5271;44.422;26.092;2023-02-18T03:44:22;1.00;;;1.00;;
10446;SDS011;5271;44.422;26.092;2023-02-18T03:46:50;1.00;;;1.00;;
10446;SDS011;5271;44.422;26.092;2023-02-18T03:49:18;1.00;;;1.00;;
10446;SDS011;5271;44.422;26.092;2023-02-18T03:51:45;1.00;;;1.00;;
10446;SDS011;5271;44.422;26.092;2023-02-18T03:54:13;0.90;;;0.90;;
10446;SDS011;5271;44.422;26.092;2023-02-18T03:56:40;1.00;;;1.00;;
10446;SDS011;5271;44.422;26.092;2023-02-18T03:59:08;0.90;;;0.90;;
10446;SDS011;5271;44.422;26.092;2023-02-18T04:01:36;1.00;;;1.00;;
10446;SDS011;5271;44.422;26.092;2023-02-18T04:04:03;0.90;;;0.90;;
10446;SDS011;5271;44.422;26.092;2023-02-18T04:06:30;0.90;;;0.90;;
10446;SDS011;5271;44.422;26.092;2023-02-18T04:08:57;0.90;;;0.90;;
10446;SDS011;5271;44.422;26.092;2023-02-18T04:11:25;0.90;;;0.90;;
10446;SDS011;5271;44.422;26.092;2023-02-18T04:13:52;0.90;;;0.90;;
10446;SDS011;5271;44.422;26.092;2023-02-18T04:16:19;0.97;;;0.97;;
10446;SDS011;5271;44.422;26.092;2023-02-18T04:18:46;0.90;;;0.90;;
10446;SDS011;5271;44.422;26.092;2023-02-18T04:21:13;0.90;;;0.90;;
10446;SDS011;5271;44.422;26.092;2023-02-18T04:23:39;1.10;;;1.10;;
10446;SDS011;5271;44.422;26.092;2023-02-18T04:26:06;1.00;;;1.00;;
10446;SDS011;5271;44.422;26.092;2023-02-18T04:28:34;1.00;;;1.00;;
10446;SDS011;5271;44.422;26.092;2023-02-18T04:31:01;1.00;;;1.00;;
10446;SDS011;5271;44.422;26.092;2023-02-18T04:33:28;0.90;;;0.90;;
10446;SDS011;5271;44.422;26.092;2023-02-18T04:35:55;1.00;;;1.00;;
10446;SDS011;5271;44.422;26.092;2023-02-18T04:38:22;1.00;;;1.00;;
10446;SDS011;5271;44.422;26.092;2023-02-18T04:40:49;1.00;;;1.00;;
10446;SDS011;5271;44.422;26.092;2023-02-18T04:43:16;1.00;;;1.00;;
10446;SDS011;5271;44.422;26.092;2023-02-18T04:45:44;0.90;;;0.90;;
10446;SDS011;5271;44.422;26.092;2023-02-18T04:48:11;0.90;;;0.90;;
10446;SDS011;5271;44.422;26.092;2023-02-18T04:50:38;0.90;;;0.90;;
10446;SDS011;5271;44.422;26.092;2023-02-18T04:53:05;0.90;;;0.90;;
10446;SDS011;5271;44.422;26.092;2023-02-18T04:55:32;1.00;;;1.00;;
10446;SDS011;5271;44.422;26.092;2023-02-18T04:57:58;0.90;;;0.90;;
10446;SDS011;5271;44.422;26.092;2023-02-18T05:00:25;0.90;;;0.90;;
10446;SDS011;5271;44.422;26.092;2023-02-18T05:02:54;1.00;;;1.00;;
10446;SDS011;5271;44.422;26.092;2023-02-18T05:05:21;1.00;;;1.00;;
10446;SDS011;5271;44.422;26.092;2023-02-18T05:07:48;1.00;;;1.00;;
10446;SDS011;5271;44.422;26.092;2023-02-18T05:10:15;1.00;;;1.00;;
10446;SDS011;5271;44.422;26.092;2023-02-18T05:12:43;1.00;;;1.00;;
10446;SDS011;5271;44.422;26.092;2023-02-18T05:15:10;0.97;;;0.97;;
10446;SDS011;5271;44.422;26.092;2023-02-18T05:17:36;0.83;;;0.83;;
10446;SDS011;5271;44.422;26.092;2023-02-18T05:20:06;0.90;;;0.90;;
10446;SDS011;5271;44.422;26.092;2023-02-18T05:22:33;0.90;;;0.90;;
10446;SDS011;5271;44.422;26.092;2023-02-18T05:25:00;1.00;;;1.00;;
10446;SDS011;5271;44.422;26.092;2023-02-18T05:27:27;0.90;;;0.90;;
10446;SDS011;5271;44.422;26.092;2023-02-18T05:29:54;0.90;;;0.90;;
10446;SDS011;5271;44.422;26.092;2023-02-18T05:32:20;0.90;;;0.90;;
10446;SDS011;5271;44.422;26.092;2023-02-18T05:34:48;1.00;;;1.00;;
10446;SDS011;5271;44.422;26.092;2023-02-18T05:37:16;0.90;;;0.90;;
10446;SDS011;5271;44.422;26.092;2023-02-18T05:39:43;1.00;;;1.00;;
10446;SDS011;5271;44.422;26.092;2023-02-18T05:42:10;1.00;;;1.00;;
10446;SDS011;5271;44.422;26.092;2023-02-18T05:44:37;1.00;;;1.00;;
10446;SDS011;5271;44.422;26.092;2023-02-18T05:47:05;0.90;;;0.90;;
10446;SDS011;5271;44.422;26.092;2023-02-18T05:49:33;0.90;;;0.90;;
10446;SDS011;5271;44.422;26.092;2023-02-18T05:52:00;1.00;;;1.00;;
10446;SDS011;5271;44.422;26.092;2023-02-18T05:54:29;1.00;;;1.00;;
10446;SDS011;5271;44.422;26.092;2023-02-18T05:56:56;0.93;;;0.93;;
10446;SDS011;5271;44.422;26.092;2023-02-18T05:59:23;0.90;;;0.90;;
10446;SDS011;5271;44.422;26.092;2023-02-18T06:01:50;0.90;;;0.90;;
10446;SDS011;5271;44.422;26.092;2023-02-18T06:04:17;1.00;;;1.00;;
10446;SDS011;5271;44.422;26.092;2023-02-18T06:06:44;0.90;;;0.90;;
10446;SDS011;5271;44.422;26.092;2023-02-18T06:09:11;1.03;;;1.03;;
10446;SDS011;5271;44.422;26.092;2023-02-18T06:11:40;0.93;;;0.93;;
10446;SDS011;5271;44.422;26.092;2023-02-18T06:14:07;0.90;;;0.90;;
10446;SDS011;5271;44.422;26.092;2023-02-18T06:16:34;0.90;;;0.90;;
10446;SDS011;5271;44.422;26.092;2023-02-18T06:19:01;1.00;;;1.00;;
10446;SDS011;5271;44.422;26.092;2023-02-18T06:21:28;0.90;;;0.90;;
10446;SDS011;5271;44.422;26.092;2023-02-18T06:23:54;1.00;;;1.00;;
10446;SDS011;5271;44.422;26.092;2023-02-18T06:26:21;0.90;;;0.90;;
10446;SDS011;5271;44.422;26.092;2023-02-18T06:28:50;0.97;;;0.97;;
10446;SDS011;5271;44.422;26.092;2023-02-18T06:31:16;0.90;;;0.90;;
10446;SDS011;5271;44.422;26.092;2023-02-18T06:33:43;0.90;;;0.90;;
10446;SDS011;5271;44.422;26.092;2023-02-18T06:36:10;0.90;;;0.90;;
10446;SDS011;5271;44.422;26.092;2023-02-18T06:38:38;0.90;;;0.90;;
10446;SDS011;5271;44.422;26.092;2023-02-18T06:41:05;0.90;;;0.90;;
10446;SDS011;5271;44.422;26.092;2023-02-18T06:43:33;1.00;;;1.00;;
10446;SDS011;5271;44.422;26.092;2023-02-18T06:46:01;0.90;;;0.90;;
10446;SDS011;5271;44.422;26.092;2023-02-18T06:48:29;0.93;;;0.93;;
10446;SDS011;5271;44.422;26.092;2023-02-18T06:50:55;0.90;;;0.90;;
10446;SDS011;5271;44.422;26.092;2023-02-18T06:53:22;1.00;;;1.00;;
10446;SDS011;5271;44.422;26.092;2023-02-18T06:55:49;0.90;;;0.90;;
10446;SDS011;5271;44.422;26.092;2023-02-18T06:58:16;1.00;;;1.00;;
10446;SDS011;5271;44.422;26.092;2023-02-18T07:00:43;0.90;;;0.90;;
10446;SDS011;5271;44.422;26.092;2023-02-18T07:03:12;1.00;;;1.00;;
10446;SDS011;5271;44.422;26.092;2023-02-18T07:05:39;0.90;;;0.90;;
10446;SDS011;5271;44.422;26.092;2023-02-18T07:08:06;1.00;;;1.00;;
10446;SDS011;5271;44.422;26.092;2023-02-18T07:10:33;0.90;;;0.90;;
10446;SDS011;5271;44.422;26.092;2023-02-18T07:13:00;0.90;;;0.90;;
10446;SDS011;5271;44.422;26.092;2023-02-18T07:15:27;0.90;;;0.90;;
10446;SDS011;5271;44.422;26.092;2023-02-18T07:17:54;0.97;;;0.97;;
10446;SDS011;5271;44.422;26.092;2023-02-18T07:20:23;0.90;;;0.90;;
10446;SDS011;5271;44.422;26.092;2023-02-18T07:22:50;0.97;;;0.97;;
10446;SDS011;5271;44.422;26.092;2023-02-18T07:25:18;1.00;;;1.00;;
10446;SDS011;5271;44.422;26.092;2023-02-18T07:27:45;1.00;;;1.00;;
10446;SDS011;5271;44.422;26.092;2023-02-18T07:30:12;1.00;;;1.00;;
10446;SDS011;5271;44.422;26.092;2023-02-18T07:32:39;0.93;;;0.93;;
10446;SDS011;5271;44.422;26.092;2023-02-18T07:35:06;0.90;;;0.90;;
10446;SDS011;5271;44.422;26.092;2023-02-18T07:37:35;0.90;;;0.90;;
10446;SDS011;5271;44.422;26.092;2023-02-18T07:40:02;1.00;;;1.00;;
10446;SDS011;5271;44.422;26.092;2023-02-18T07:42:29;0.90;;;0.90;;
10446;SDS011;5271;44.422;26.092;2023-02-18T07:44:56;1.00;;;1.00;;
10446;SDS011;5271;44.422;26.092;2023-02-18T07:47:23;0.90;;;0.90;;
10446;SDS011;5271;44.422;26.092;2023-02-18T07:49:50;1.00;;;1.00;;
10446;SDS011;5271;44.422;26.092;2023-02-18T07:52:17;0.90;;;0.90;;
10446;SDS011;5271;44.422;26.092;2023-02-18T07:54:45;1.00;;;1.00;;
10446;SDS011;5271;44.422;26.092;2023-02-18T07:57:12;1.00;;;1.00;;
10446;SDS011;5271;44.422;26.092;2023-02-18T07:59:39;1.00;;;1.00;;
10446;SDS011;5271;44.422;26.092;2023-02-18T08:02:08;0.90;;;0.90;;
10446;SDS011;5271;44.422;26.092;2023-02-18T08:04:40;0.93;;;0.93;;
10446;SDS011;5271;44.422;26.092;2023-02-18T08:07:10;1.00;;;1.00;;
10446;SDS011;5271;44.422;26.092;2023-02-18T08:09:38;1.00;;;1.00;;
10446;SDS011;5271;44.422;26.092;2023-02-18T08:12:07;0.90;;;0.90;;
10446;SDS011;5271;44.422;26.092;2023-02-18T08:14:34;1.00;;;1.00;;
10446;SDS011;5271;44.422;26.092;2023-02-18T08:17:01;1.00;;;1.00;;
10446;SDS011;5271;44.422;26.092;2023-02-18T08:19:28;0.90;;;0.90;;
10446;SDS011;5271;44.422;26.092;2023-02-18T08:21:54;0.93;;;0.93;;
10446;SDS011;5271;44.422;26.092;2023-02-18T08:24:21;0.90;;;0.90;;
10446;SDS011;5271;44.422;26.092;2023-02-18T08:26:48;1.00;;;1.00;;
10446;SDS011;5271;44.422;26.092;2023-02-18T08:29:16;1.00;;;1.00;;
10446;SDS011;5271;44.422;26.092;2023-02-18T08:31:43;0.87;;;0.87;;
10446;SDS011;5271;44.422;26.092;2023-02-18T08:34:10;0.90;;;0.90;;
10446;SDS011;5271;44.422;26.092;2023-02-18T08:36:37;0.90;;;0.90;;
10446;SDS011;5271;44.422;26.092;2023-02-18T08:39:04;1.00;;;1.00;;
10446;SDS011;5271;44.422;26.092;2023-02-18T08:41:31;0.90;;;0.90;;
10446;SDS011;5271;44.422;26.092;2023-02-18T08:43:57;1.00;;;1.00;;
10446;SDS011;5271;44.422;26.092;2023-02-18T08:46:26;0.90;;;0.90;;
10446;SDS011;5271;44.422;26.092;2023-02-18T08:48:52;0.90;;;0.90;;
10446;SDS011;5271;44.422;26.092;2023-02-18T08:51:20;0.90;;;0.90;;
10446;SDS011;5271;44.422;26.092;2023-02-18T08:53:48;1.00;;;1.00;;
10446;SDS011;5271;44.422;26.092;2023-02-18T08:56:15;0.90;;;0.90;;
10446;SDS011;5271;44.422;26.092;2023-02-18T08:58:42;0.90;;;0.90;;
10446;SDS011;5271;44.422;26.092;2023-02-18T09:01:10;0.90;;;0.90;;
10446;SDS011;5271;44.422;26.092;2023-02-18T09:03:39;1.00;;;1.00;;
10446;SDS011;5271;44.422;26.092;2023-02-18T09:06:07;0.90;;;0.90;;
10446;SDS011;5271;44.422;26.092;2023-02-18T09:08:34;0.90;;;0.90;;
10446;SDS011;5271;44.422;26.092;2023-02-18T09:11:01;0.97;;;0.97;;
10446;SDS011;5271;44.422;26.092;2023-02-18T09:13:29;0.90;;;0.90;;
10446;SDS011;5271;44.422;26.092;2023-02-18T09:15:58;1.00;;;1.00;;
10446;SDS011;5271;44.422;26.092;2023-02-18T09:18:26;1.00;;;1.00;;
10446;SDS011;5271;44.422;26.092;2023-02-18T09:20:55;0.90;;;0.90;;
10446;SDS011;5271;44.422;26.092;2023-02-18T09:23:24;1.00;;;1.00;;
10446;SDS011;5271;44.422;26.092;2023-02-18T09:25:51;0.90;;;0.90;;
10446;SDS011;5271;44.422;26.092;2023-02-18T09:28:18;0.90;;;0.90;;
10446;SDS011;5271;44.422;26.092;2023-02-18T09:30:45;0.90;;;0.90;;
10446;SDS011;5271;44.422;26.092;2023-02-18T09:33:12;0.87;;;0.87;;
10446;SDS011;5271;44.422;26.092;2023-02-18T09:35:39;0.90;;;0.90;;
10446;SDS011;5271;44.422;26.092;2023-02-18T09:38:09;0.90;;;0.90;;
10446;SDS011;5271;44.422;26.092;2023-02-18T09:40:38;0.90;;;0.90;;
10446;SDS011;5271;44.422;26.092;2023-02-18T09:43:09;0.90;;;0.90;;
10446;SDS011;5271;44.422;26.092;2023-02-18T09:45:47;0.90;;;0.90;;
10446;SDS011;5271;44.422;26.092;2023-02-18T09:48:16;0.90;;;0.90;;
10446;SDS011;5271;44.422;26.092;2023-02-18T09:50:43;0.90;;;0.90;;
10446;SDS011;5271;44.422;26.092;2023-02-18T09:53:16;0.90;;;0.90;;
10446;SDS011;5271;44.422;26.092;2023-02-18T09:55:44;0.90;;;0.90;;
10446;SDS011;5271;44.422;26.092;2023-02-18T09:58:11;0.90;;;0.90;;
10446;SDS011;5271;44.422;26.092;2023-02-18T10:00:41;0.90;;;0.90;;
10446;SDS011;5271;44.422;26.092;2023-02-18T10:03:10;0.90;;;0.90;;
10446;SDS011;5271;44.422;26.092;2023-02-18T10:05:42;0.90;;;0.90;;
10446;SDS011;5271;44.422;26.092;2023-02-18T10:08:20;0.90;;;0.90;;
10446;SDS011;5271;44.422;26.092;2023-02-18T10:10:50;0.80;;;0.80;;
10446;SDS011;5271;44.422;26.092;2023-02-18T10:13:18;0.90;;;0.90;;
10446;SDS011;5271;44.422;26.092;2023-02-18T10:15:47;0.90;;;0.90;;
10446;SDS011;5271;44.422;26.092;2023-02-18T10:18:23;0.80;;;0.80;;
10446;SDS011;5271;44.422;26.092;2023-02-18T10:20:56;0.83;;;0.83;;
10446;SDS011;5271;44.422;26.092;2023-02-18T10:23:34;0.80;;;0.80;;
10446;SDS011;5271;44.422;26.092;2023-02-18T10:26:05;0.90;;;0.90;;
10446;SDS011;5271;44.422;26.092;2023-02-18T10:28:37;0.90;;;0.90;;
10446;SDS011;5271;44.422;26.092;2023-02-18T10:31:04;0.80;;;0.80;;
10446;SDS011;5271;44.422;26.092;2023-02-18T10:33:35;0.90;;;0.90;;
10446;SDS011;5271;44.422;26.092;2023-02-18T10:36:23;0.80;;;0.80;;
10446;SDS011;5271;44.422;26.092;2023-02-18T10:41:53;0.70;;;0.70;;
10446;SDS011;5271;44.422;26.092;2023-02-18T10:44:29;0.90;;;0.90;;
10446;SDS011;5271;44.422;26.092;2023-02-18T10:47:05;0.80;;;0.80;;
10446;SDS011;5271;44.422;26.092;2023-02-18T10:49:49;0.80;;;0.80;;
10446;SDS011;5271;44.422;26.092;2023-02-18T10:52:21;0.80;;;0.80;;
10446;SDS011;5271;44.422;26.092;2023-02-18T10:54:52;0.80;;;0.80;;
10446;SDS011;5271;44.422;26.092;2023-02-18T10:57:24;0.80;;;0.80;;
10446;SDS011;5271;44.422;26.092;2023-02-18T10:59:56;0.73;;;0.73;;
10446;SDS011;5271;44.422;26.092;2023-02-18T11:02:26;0.80;;;0.80;;
10446;SDS011;5271;44.422;26.092;2023-02-18T11:04:56;0.80;;;0.80;;
10446;SDS011;5271;44.422;26.092;2023-02-18T11:07:28;0.80;;;0.80;;
10446;SDS011;5271;44.422;26.092;2023-02-18T11:09:58;0.70;;;0.70;;
10446;SDS011;5271;44.422;26.092;2023-02-18T11:12:28;0.80;;;0.80;;
10446;SDS011;5271;44.422;26.092;2023-02-18T11:15:05;0.70;;;0.70;;
10446;SDS011;5271;44.422;26.092;2023-02-18T11:17:41;0.70;;;0.70;;
10446;SDS011;5271;44.422;26.092;2023-02-18T11:20:19;0.80;;;0.80;;
10446;SDS011;5271;44.422;26.092;2023-02-18T11:25:51;0.80;;;0.80;;
10446;SDS011;5271;44.422;26.092;2023-02-18T11:28:28;0.70;;;0.70;;
10446;SDS011;5271;44.422;26.092;2023-02-18T11:31:10;0.70;;;0.70;;
10446;SDS011;5271;44.422;26.092;2023-02-18T11:33:46;0.70;;;0.70;;
10446;SDS011;5271;44.422;26.092;2023-02-18T11:36:21;0.70;;;0.70;;
10446;SDS011;5271;44.422;26.092;2023-02-18T11:38:49;0.80;;;0.80;;
10446;SDS011;5271;44.422;26.092;2023-02-18T11:41:20;0.80;;;0.80;;
10446;SDS011;5271;44.422;26.092;2023-02-18T11:43:55;0.83;;;0.83;;
10446;SDS011;5271;44.422;26.092;2023-02-18T11:46:24;0.70;;;0.70;;
10446;SDS011;5271;44.422;26.092;2023-02-18T11:48:52;0.73;;;0.73;;
10446;SDS011;5271;44.422;26.092;2023-02-18T11:51:20;0.77;;;0.77;;
10446;SDS011;5271;44.422;26.092;2023-02-18T11:53:54;0.73;;;0.73;;
10446;SDS011;5271;44.422;26.092;2023-02-18T11:56:28;0.70;;;0.70;;
10446;SDS011;5271;44.422;26.092;2023-02-18T11:58:57;0.80;;;0.80;;
10446;SDS011;5271;44.422;26.092;2023-02-18T12:01:30;0.80;;;0.80;;
10446;SDS011;5271;44.422;26.092;2023-02-18T12:04:05;0.70;;;0.70;;
10446;SDS011;5271;44.422;26.092;2023-02-18T12:06:37;0.70;;;0.70;;
10446;SDS011;5271;44.422;26.092;2023-02-18T12:09:13;0.60;;;0.60;;
10446;SDS011;5271;44.422;26.092;2023-02-18T12:11:49;0.70;;;0.70;;
10446;SDS011;5271;44.422;26.092;2023-02-18T12:14:19;0.70;;;0.70;;
10446;SDS011;5271;44.422;26.092;2023-02-18T12:16:52;0.67;;;0.67;;
10446;SDS011;5271;44.422;26.092;2023-02-18T12:19:47;0.67;;;0.67;;
10446;SDS011;5271;44.422;26.092;2023-02-18T12:22:20;0.70;;;0.70;;
10446;SDS011;5271;44.422;26.092;2023-02-18T12:25:02;0.70;;;0.70;;
10446;SDS011;5271;44.422;26.092;2023-02-18T12:27:42;0.80;;;0.80;;
10446;SDS011;5271;44.422;26.092;2023-02-18T12:30:27;0.60;;;0.60;;
10446;SDS011;5271;44.422;26.092;2023-02-18T12:33:07;0.73;;;0.73;;
10446;SDS011;5271;44.422;26.092;2023-02-18T12:35:48;0.77;;;0.77;;
10446;SDS011;5271;44.422;26.092;2023-02-18T12:38:29;0.80;;;0.80;;
10446;SDS011;5271;44.422;26.092;2023-02-18T12:41:33;0.70;;;0.70;;
10446;SDS011;5271;44.422;26.092;2023-02-18T12:44:12;0.70;;;0.70;;
10446;SDS011;5271;44.422;26.092;2023-02-18T12:46:52;0.80;;;0.80;;
10446;SDS011;5271;44.422;26.092;2023-02-18T12:53:01;0.70;;;0.70;;
10446;SDS011;5271;44.422;26.092;2023-02-18T12:55:47;0.70;;;0.70;;
10446;SDS011;5271;44.422;26.092;2023-02-18T12:58:31;0.70;;;0.70;;
10446;SDS011;5271;44.422;26.092;2023-02-18T13:01:22;0.80;;;0.80;;
10446;SDS011;5271;44.422;26.092;2023-02-18T13:04:13;0.70;;;0.70;;
10446;SDS011;5271;44.422;26.092;2023-02-18T13:06:56;0.60;;;0.60;;
10446;SDS011;5271;44.422;26.092;2023-02-18T13:09:46;0.70;;;0.70;;
10446;SDS011;5271;44.422;26.092;2023-02-18T13:12:25;0.70;;;0.70;;
10446;SDS011;5271;44.422;26.092;2023-02-18T13:14:58;0.70;;;0.70;;
10446;SDS011;5271;44.422;26.092;2023-02-18T13:17:31;0.70;;;0.70;;
10446;SDS011;5271;44.422;26.092;2023-02-18T13:20:02;0.70;;;0.70;;
10446;SDS011;5271;44.422;26.092;2023-02-18T13:22:32;0.70;;;0.70;;
10446;SDS011;5271;44.422;26.092;2023-02-18T13:25:00;0.70;;;0.70;;
10446;SDS011;5271;44.422;26.092;2023-02-18T13:27:28;0.70;;;0.70;;
10446;SDS011;5271;44.422;26.092;2023-02-18T13:30:08;0.70;;;0.70;;
10446;SDS011;5271;44.422;26.092;2023-02-18T13:32:46;0.70;;;0.70;;
10446;SDS011;5271;44.422;26.092;2023-02-18T13:35:24;0.67;;;0.67;;
10446;SDS011;5271;44.422;26.092;2023-02-18T13:38:02;0.70;;;0.70;;
10446;SDS011;5271;44.422;26.092;2023-02-18T13:40:45;0.67;;;0.67;;
10446;SDS011;5271;44.422;26.092;2023-02-18T13:43:16;0.70;;;0.70;;
10446;SDS011;5271;44.422;26.092;2023-02-18T13:45:57;0.70;;;0.70;;
10446;SDS011;5271;44.422;26.092;2023-02-18T13:48:32;0.70;;;0.70;;
10446;SDS011;5271;44.422;26.092;2023-02-18T13:51:01;0.60;;;0.60;;
10446;SDS011;5271;44.422;26.092;2023-02-18T13:53:30;0.67;;;0.67;;
10446;SDS011;5271;44.422;26.092;2023-02-18T13:56:02;0.70;;;0.70;;
10446;SDS011;5271;44.422;26.092;2023-02-18T13:58:35;0.70;;;0.70;;
10446;SDS011;5271;44.422;26.092;2023-02-18T14:01:11;0.70;;;0.70;;
10446;SDS011;5271;44.422;26.092;2023-02-18T14:03:59;0.60;;;0.60;;
10446;SDS011;5271;44.422;26.092;2023-02-18T14:06:27;0.70;;;0.70;;
10446;SDS011;5271;44.422;26.092;2023-02-18T14:11:57;0.70;;;0.70;;
10446;SDS011;5271;44.422;26.092;2023-02-18T14:14:42;0.70;;;0.70;;
10446;SDS011;5271;44.422;26.092;2023-02-18T14:17:23;0.70;;;0.70;;
10446;SDS011;5271;44.422;26.092;2023-02-18T14:26:24;0.80;;;0.80;;
10446;SDS011;5271;44.422;26.092;2023-02-18T14:28:59;0.70;;;0.70;;
10446;SDS011;5271;44.422;26.092;2023-02-18T14:31:40;0.80;;;0.80;;
10446;SDS011;5271;44.422;26.092;2023-02-18T14:34:26;0.80;;;0.80;;
10446;SDS011;5271;44.422;26.092;2023-02-18T14:37:14;0.80;;;0.80;;
10446;SDS011;5271;44.422;26.092;2023-02-18T14:40:01;0.80;;;0.80;;
10446;SDS011;5271;44.422;26.092;2023-02-18T14:42:42;0.73;;;0.73;;
10446;SDS011;5271;44.422;26.092;2023-02-18T14:45:17;0.70;;;0.70;;
10446;SDS011;5271;44.422;26.092;2023-02-18T14:48:01;0.77;;;0.77;;
10446;SDS011;5271;44.422;26.092;2023-02-18T14:50:38;0.70;;;0.70;;
10446;SDS011;5271;44.422;26.092;2023-02-18T14:53:12;0.70;;;0.70;;
10446;SDS011;5271;44.422;26.092;2023-02-18T14:55:44;0.70;;;0.70;;
10446;SDS011;5271;44.422;26.092;2023-02-18T14:58:15;0.70;;;0.70;;
10446;SDS011;5271;44.422;26.092;2023-02-18T15:00:50;0.70;;;0.70;;
10446;SDS011;5271;44.422;26.092;2023-02-18T15:03:18;0.70;;;0.70;;
10446;SDS011;5271;44.422;26.092;2023-02-18T15:05:46;0.70;;;0.70;;
10446;SDS011;5271;44.422;26.092;2023-02-18T15:08:16;0.63;;;0.63;;
10446;SDS011;5271;44.422;26.092;2023-02-18T15:10:45;0.70;;;0.70;;
10446;SDS011;5271;44.422;26.092;2023-02-18T15:13:16;0.80;;;0.80;;
10446;SDS011;5271;44.422;26.092;2023-02-18T15:15:46;0.80;;;0.80;;
10446;SDS011;5271;44.422;26.092;2023-02-18T15:18:17;0.80;;;0.80;;
10446;SDS011;5271;44.422;26.092;2023-02-18T15:20:48;0.60;;;0.60;;
10446;SDS011;5271;44.422;26.092;2023-02-18T15:23:17;0.70;;;0.70;;
10446;SDS011;5271;44.422;26.092;2023-02-18T15:25:45;0.70;;;0.70;;
10446;SDS011;5271;44.422;26.092;2023-02-18T15:28:22;0.67;;;0.67;;
10446;SDS011;5271;44.422;26.092;2023-02-18T15:30:51;0.73;;;0.73;;
10446;SDS011;5271;44.422;26.092;2023-02-18T15:33:19;0.70;;;0.70;;
10446;SDS011;5271;44.422;26.092;2023-02-18T15:35:46;0.70;;;0.70;;
10446;SDS011;5271;44.422;26.092;2023-02-18T15:38:14;0.70;;;0.70;;
10446;SDS011;5271;44.422;26.092;2023-02-18T15:40:43;0.70;;;0.70;;